Terminal Aerodrome Forecast
Issued by NWS

Home | Current Version | Previous Version | Text Only | Print | Product List | Glossary On
Versions: 1 2 3 4 5 6 7 8 9 10 11 12
000
FTUS45 KTFX 241700
TAFBZN
TAF
KBZN 241728Z 2418/2518 30011KT P6SM SCT090
      TEMPO 2418/2420 30011G21KT
     FM242000 29018G28KT P6SM VCSH SCT070 BKN100
     FM250200 VRB06KT P6SM SKC=

USA.gov is the U.S. government's official web portal to all federal, state and local government web resources and services.